Time;durP1;ratioP1;P1;durP2;ratioP2;P2;SDS_P1;SDS_P2;PMS_P1;PMS_P2;Temp;Humidity;BMP_temperature;BMP_pressure;BME280_temperature;BME280_humidity;BME280_pressure;Samples;Min_cycle;Max_cycle;Signal;HPM_P1;HPM_P2
2022/08/01 00:00:25;;;;;;;6.53;2.63;;;17.40;99.90;;;;;;5030778;28;20060;-69
2022/08/01 00:02:50;;;;;;;4.90;3.08;;;17.40;99.90;;;;;;5031144;28;20565;-71
2022/08/01 00:05:16;;;;;;;6.90;3.08;;;17.40;99.90;;;;;;5031499;28;20046;-70
2022/08/01 00:07:43;;;;;;;6.60;2.92;;;17.40;99.90;;;;;;5013591;28;20045;-69
2022/08/01 00:10:14;;;;;;;4.30;3.00;;;17.40;99.90;;;;;;5042887;28;20052;-69
2022/08/01 00:12:41;;;;;;;3.88;2.30;;;17.40;99.90;;;;;;5045939;28;20045;-69
2022/08/01 00:15:09;;;;;;;4.97;2.35;;;17.40;99.90;;;;;;5052502;28;20178;-69
2022/08/01 00:17:35;;;;;;;6.05;2.67;;;17.40;99.90;;;;;;5021108;28;20065;-69
2022/08/01 00:20:03;;;;;;;3.50;2.60;;;17.40;99.90;;;;;;5036939;28;20510;-68
2022/08/01 00:22:30;;;;;;;5.82;3.05;;;17.50;99.90;;;;;;5046413;28;20045;-68
2022/08/01 00:24:56;;;;;;;3.78;2.58;;;17.50;99.90;;;;;;5034558;28;20081;-67
2022/08/01 00:27:21;;;;;;;10.15;3.45;;;17.50;99.90;;;;;;5013557;28;20077;-68
2022/08/01 00:29:47;;;;;;;6.03;2.97;;;17.50;99.90;;;;;;5031320;28;20046;-68
2022/08/01 00:32:13;;;;;;;6.50;3.55;;;17.50;99.90;;;;;;5034687;28;20520;-67
2022/08/01 00:34:38;;;;;;;7.60;3.78;;;17.60;99.90;;;;;;5029524;28;20484;-68
2022/08/01 00:37:04;;;;;;;9.07;4.53;;;17.50;99.90;;;;;;5014457;28;20057;-67
2022/08/01 00:39:30;;;;;;;11.32;4.35;;;17.50;99.90;;;;;;5034153;28;20040;-68
2022/08/01 00:41:55;;;;;;;9.52;4.93;;;17.50;99.90;;;;;;5051196;28;20530;-67
2022/08/01 00:44:21;;;;;;;5.38;4.28;;;17.60;99.90;;;;;;5032317;28;20045;-68
2022/08/01 00:46:46;;;;;;;6.30;4.43;;;17.50;99.90;;;;;;5034130;28;20049;-68
2022/08/01 00:49:12;;;;;;;12.57;4.82;;;17.50;99.90;;;;;;5048448;28;20056;-67
2022/08/01 00:51:39;;;;;;;5.15;4.15;;;17.50;99.90;;;;;;5049657;28;20040;-68
2022/08/01 00:54:04;;;;;;;7.85;4.30;;;17.50;99.90;;;;;;5048476;28;20555;-67
2022/08/01 00:56:30;;;;;;;5.93;4.30;;;17.50;99.90;;;;;;5035853;28;20052;-69
2022/08/01 00:58:56;;;;;;;9.00;4.03;;;17.50;99.90;;;;;;5046589;28;20041;-67
2022/08/01 01:01:22;;;;;;;5.35;3.85;;;17.50;99.90;;;;;;5049436;28;20044;-68
2022/08/01 01:03:49;;;;;;;9.48;3.80;;;17.40;99.90;;;;;;5036812;28;20053;-68
2022/08/01 01:06:40;;;;;;;6.55;3.70;;;17.50;99.90;;;;;;5032565;28;20055;-69
2022/08/01 01:09:21;;;;;;;7.40;2.88;;;17.40;99.90;;;;;;5043683;28;20061;-68
2022/08/01 01:11:53;;;;;;;8.57;2.03;;;17.40;99.90;;;;;;5047051;28;20048;-66
2022/08/01 01:14:56;;;;;;;5.45;2.10;;;17.30;99.90;;;;;;5028702;28;20484;-67
2022/08/01 01:17:28;;;;;;;4.15;2.20;;;17.30;99.90;;;;;;5019794;28;20088;-68
2022/08/01 01:19:57;;;;;;;5.70;1.95;;;17.20;99.90;;;;;;5047381;28;20072;-68
2022/08/01 01:22:45;;;;;;;5.20;2.10;;;17.20;99.90;;;;;;5030531;28;20056;-68
2022/08/01 01:25:16;;;;;;;3.63;1.67;;;17.20;99.90;;;;;;5030361;28;20106;-67
2022/08/01 01:28:05;;;;;;;5.57;2.25;;;17.20;99.90;;;;;;5025456;28;20500;-67
2022/08/01 01:30:32;;;;;;;7.07;2.33;;;17.20;99.90;;;;;;5050397;28;20041;-68
2022/08/01 01:33:02;;;;;;;8.10;2.70;;;17.10;99.90;;;;;;5034386;28;20045;-65
2022/08/01 01:35:31;;;;;;;6.55;2.30;;;17.10;99.90;;;;;;5048202;28;20280;-69
2022/08/01 01:38:22;;;;;;;5.65;2.00;;;17.10;99.90;;;;;;5033226;28;20063;-67
2022/08/01 01:40:50;;;;;;;8.05;2.33;;;17.10;99.90;;;;;;5033605;28;20496;-68
2022/08/01 01:43:17;;;;;;;6.82;2.00;;;17.10;99.90;;;;;;5036135;28;20128;-67
2022/08/01 01:45:45;;;;;;;9.10;2.20;;;17.00;99.90;;;;;;5048185;28;20045;-67
2022/08/01 01:48:16;;;;;;;7.68;2.28;;;17.00;99.90;;;;;;5027449;28;20053;-68
2022/08/01 01:50:44;;;;;;;5.47;2.40;;;17.00;99.90;;;;;;5028725;28;20107;-65
2022/08/01 01:53:13;;;;;;;8.75;2.17;;;16.90;99.90;;;;;;5029434;28;20058;-68
2022/08/01 01:55:40;;;;;;;8.75;2.80;;;16.90;99.90;;;;;;5022966;28;20053;-67
2022/08/01 01:58:08;;;;;;;5.53;2.20;;;16.90;99.90;;;;;;5013587;28;20042;-67
2022/08/01 02:00:35;;;;;;;9.18;2.13;;;16.90;99.90;;;;;;5043937;28;20057;-67
2022/08/01 02:03:06;;;;;;;5.82;1.92;;;16.90;99.90;;;;;;5040590;28;20050;-66
2022/08/01 02:05:34;;;;;;;6.38;2.45;;;16.90;99.90;;;;;;5024754;28;20057;-66
2022/08/01 02:08:03;;;;;;;8.25;2.33;;;16.90;99.90;;;;;;5012177;28;20082;-67
2022/08/01 02:10:30;;;;;;;13.48;2.90;;;16.90;99.90;;;;;;5039047;28;20060;-66
2022/08/01 02:12:59;;;;;;;12.68;3.25;;;16.90;99.90;;;;;;5029676;28;20045;-66
2022/08/01 02:15:27;;;;;;;12.02;3.80;;;16.80;99.90;;;;;;5038539;28;20102;-68
2022/08/01 02:17:55;;;;;;;10.68;3.60;;;16.80;99.90;;;;;;5013810;28;20037;-67
2022/08/01 02:20:22;;;;;;;15.55;3.58;;;16.80;99.90;;;;;;5034224;28;20051;-67
2022/08/01 02:22:55;;;;;;;11.52;3.53;;;16.80;99.90;;;;;;5046037;28;20498;-67
2022/08/01 02:25:31;;;;;;;10.73;4.20;;;16.80;99.90;;;;;;5029040;28;20042;-67
2022/08/01 02:27:56;;;;;;;8.95;3.80;;;16.70;99.90;;;;;;5027443;28;20064;-66
2022/08/01 02:30:24;;;;;;;9.98;3.40;;;16.70;99.90;;;;;;5049436;28;20477;-66
2022/08/01 02:33:00;;;;;;;13.95;3.33;;;16.70;99.90;;;;;;5048687;28;20087;-67
2022/08/01 02:35:37;;;;;;;11.57;3.67;;;16.70;99.90;;;;;;5049546;28;20473;-68
2022/08/01 02:38:05;;;;;;;10.40;3.83;;;16.60;99.90;;;;;;5020736;28;20076;-67
2022/08/01 02:40:33;;;;;;;11.23;3.85;;;16.60;99.90;;;;;;5047667;28;20385;-68
2022/08/01 02:43:02;;;;;;;10.18;4.00;;;16.60;99.90;;;;;;5043844;28;20081;-67
2022/08/01 02:45:29;;;;;;;13.13;3.53;;;16.60;99.90;;;;;;5040872;28;20037;-66
2022/08/01 02:48:00;;;;;;;11.07;3.80;;;16.60;99.90;;;;;;5035246;28;20041;-67
2022/08/01 02:50:28;;;;;;;14.60;3.88;;;16.60;99.90;;;;;;5051844;28;20049;-66
2022/08/01 02:52:55;;;;;;;15.73;3.90;;;16.60;99.90;;;;;;5038811;28;20391;-66
2022/08/01 02:55:22;;;;;;;10.45;3.50;;;16.60;99.90;;;;;;5051786;28;20052;-66
2022/08/01 02:57:49;;;;;;;11.48;3.60;;;16.60;99.90;;;;;;5029027;28;20069;-67
2022/08/01 03:00:16;;;;;;;12.48;3.47;;;16.60;99.90;;;;;;5031718;28;20057;-67
2022/08/01 03:02:44;;;;;;;9.45;3.78;;;16.60;99.90;;;;;;5032463;28;20116;-67
2022/08/01 03:05:15;;;;;;;9.13;3.08;;;16.50;99.90;;;;;;5032000;28;20400;-66
2022/08/01 03:07:42;;;;;;;15.70;3.80;;;16.50;99.90;;;;;;5015184;28;20065;-66
2022/08/01 03:10:09;;;;;;;11.18;3.50;;;16.50;99.90;;;;;;5032127;28;20299;-67
2022/08/01 03:12:38;;;;;;;12.70;3.65;;;16.40;99.90;;;;;;5049575;28;20061;-67
2022/08/01 03:15:05;;;;;;;13.85;3.83;;;16.40;99.90;;;;;;5048759;28;20500;-68
2022/08/01 03:17:33;;;;;;;15.93;3.95;;;16.40;99.90;;;;;;5028008;28;20045;-66
2022/08/01 03:20:02;;;;;;;13.60;3.80;;;16.40;99.90;;;;;;5032348;28;20045;-66
2022/08/01 03:22:29;;;;;;;16.50;4.30;;;16.40;99.90;;;;;;5033691;28;20041;-67
2022/08/01 03:24:57;;;;;;;13.40;3.53;;;16.40;99.90;;;;;;5032300;28;20057;-67
2022/08/01 03:27:24;;;;;;;14.23;3.63;;;16.30;99.90;;;;;;5014688;28;20050;-67
2022/08/01 03:29:51;;;;;;;11.75;4.03;;;16.30;99.90;;;;;;5032483;28;20088;-66
2022/08/01 03:32:19;;;;;;;12.00;3.78;;;16.30;99.90;;;;;;5030394;28;20038;-66
2022/08/01 03:34:45;;;;;;;13.20;3.65;;;16.30;99.90;;;;;;5035981;28;20419;-66
2022/08/01 03:37:19;;;;;;;10.15;3.70;;;16.20;99.90;;;;;;5036601;28;20484;-66
2022/08/01 03:39:51;;;;;;;8.55;3.63;;;16.20;99.90;;;;;;5052018;28;20118;-66
2022/08/01 03:42:23;;;;;;;10.73;3.22;;;16.20;99.90;;;;;;5051442;28;20069;-66
2022/08/01 03:44:54;;;;;;;13.95;3.53;;;16.20;99.90;;;;;;5038725;28;20443;-65
2022/08/01 03:47:24;;;;;;;16.02;3.70;;;16.10;99.90;;;;;;5031836;28;20057;-65
2022/08/01 03:49:52;;;;;;;14.45;3.55;;;16.10;99.90;;;;;;5030355;28;20473;-66
2022/08/01 03:52:19;;;;;;;17.98;3.25;;;16.10;99.90;;;;;;5031757;28;20465;-66
2022/08/01 03:54:49;;;;;;;15.90;3.50;;;16.00;99.90;;;;;;5038205;28;20053;-67
2022/08/01 03:57:15;;;;;;;14.20;3.63;;;16.00;99.90;;;;;;5034245;28;20060;-65
2022/08/01 03:59:41;;;;;;;15.70;3.70;;;15.90;99.90;;;;;;5051304;28;20040;-66
2022/08/01 04:02:08;;;;;;;17.13;3.42;;;15.90;99.90;;;;;;5048346;28;20132;-66
2022/08/01 04:04:34;;;;;;;14.82;3.78;;;15.90;99.90;;;;;;5039718;28;20045;-66
2022/08/01 04:07:04;;;;;;;14.55;3.97;;;15.90;99.90;;;;;;5022446;28;20049;-66
2022/08/01 04:09:31;;;;;;;15.57;4.32;;;15.90;99.90;;;;;;5050172;28;20064;-66
2022/08/01 04:11:58;;;;;;;15.00;3.78;;;15.90;99.90;;;;;;5046944;28;20033;-65
2022/08/01 04:14:24;;;;;;;14.25;3.55;;;15.90;99.90;;;;;;5031262;28;20049;-66
2022/08/01 04:16:49;;;;;;;19.25;3.78;;;15.90;99.90;;;;;;5036102;28;20526;-65
2022/08/01 04:19:15;;;;;;;14.77;2.88;;;15.90;99.90;;;;;;5039855;28;20060;-65
2022/08/01 04:21:41;;;;;;;18.40;3.20;;;15.90;99.90;;;;;;5035904;28;20049;-66
2022/08/01 04:24:18;;;;;;;16.55;4.05;;;15.90;99.90;;;;;;5037835;28;20532;-66
2022/08/01 04:26:46;;;;;;;16.65;3.38;;;15.90;99.90;;;;;;5035937;28;20377;-67
2022/08/01 04:29:12;;;;;;;14.45;3.97;;;15.90;99.90;;;;;;5050318;28;20041;-65
2022/08/01 04:31:41;;;;;;;21.08;4.50;;;15.90;99.90;;;;;;5051429;28;20048;-67
2022/08/01 04:34:09;;;;;;;19.80;4.18;;;15.90;99.90;;;;;;5049049;28;20049;-66
2022/08/01 04:36:38;;;;;;;15.95;4.18;;;15.90;99.90;;;;;;5030689;28;20409;-67
2022/08/01 04:39:05;;;;;;;15.82;3.80;;;15.90;99.90;;;;;;5029874;28;20055;-65
2022/08/01 04:41:33;;;;;;;15.75;3.85;;;15.80;99.90;;;;;;5037260;28;20132;-67
2022/08/01 04:43:59;;;;;;;17.98;3.67;;;15.80;99.90;;;;;;5036756;28;20048;-66
2022/08/01 04:46:27;;;;;;;21.10;3.90;;;15.80;99.90;;;;;;5024830;28;20567;-66
2022/08/01 04:48:54;;;;;;;21.42;4.10;;;15.80;99.90;;;;;;5028642;28;20153;-66
2022/08/01 04:51:22;;;;;;;18.88;3.88;;;15.80;99.90;;;;;;5041954;28;20570;-66
2022/08/01 04:53:48;;;;;;;14.25;3.30;;;15.90;99.90;;;;;;5028792;28;20040;-66
2022/08/01 04:56:14;;;;;;;18.77;3.80;;;15.80;99.90;;;;;;5039370;28;20128;-66
2022/08/01 04:58:44;;;;;;;18.23;3.75;;;15.80;99.90;;;;;;5041872;28;20147;-66
2022/08/01 05:01:10;;;;;;;16.50;3.78;;;15.80;99.90;;;;;;5049353;28;20403;-66
2022/08/01 05:03:36;;;;;;;16.85;3.63;;;15.80;99.90;;;;;;5035848;28;20095;-66
2022/08/01 05:06:02;;;;;;;18.73;3.88;;;15.80;99.90;;;;;;5065340;28;20056;-66
2022/08/01 05:08:28;;;;;;;22.60;3.85;;;15.80;99.90;;;;;;5020058;28;20072;-65
2022/08/01 05:10:53;;;;;;;16.98;3.47;;;15.80;99.90;;;;;;5031302;28;20112;-65
2022/08/01 05:13:19;;;;;;;17.52;3.60;;;15.90;99.90;;;;;;5035486;28;20530;-65
2022/08/01 05:15:45;;;;;;;16.77;3.35;;;15.80;99.90;;;;;;5047932;28;20096;-66
2022/08/01 05:18:11;;;;;;;16.20;3.75;;;15.90;99.90;;;;;;5028095;28;20115;-66
2022/08/01 05:20:37;;;;;;;18.80;3.67;;;15.80;99.90;;;;;;5043192;28;20048;-65
2022/08/01 05:23:06;;;;;;;16.02;3.72;;;15.80;99.90;;;;;;5031628;28;20125;-66
2022/08/01 05:25:32;;;;;;;17.02;3.95;;;15.80;99.90;;;;;;5030081;28;20040;-66
2022/08/01 05:27:57;;;;;;;17.73;3.33;;;15.80;99.90;;;;;;5026021;28;20040;-65
2022/08/01 05:30:23;;;;;;;16.73;3.58;;;15.80;99.90;;;;;;5028562;28;20555;-66
2022/08/01 05:32:48;;;;;;;15.65;3.47;;;15.80;99.90;;;;;;5028144;28;20033;-65
2022/08/01 05:35:14;;;;;;;19.27;4.20;;;15.80;99.90;;;;;;5030898;28;20061;-65
2022/08/01 05:37:40;;;;;;;18.58;4.43;;;15.80;99.90;;;;;;5029423;28;20447;-65
2022/08/01 05:40:06;;;;;;;16.00;3.50;;;15.80;99.90;;;;;;5030407;28;20200;-66
2022/08/01 05:42:32;;;;;;;14.43;3.33;;;15.80;99.90;;;;;;5027366;28;20095;-66
2022/08/01 05:44:57;;;;;;;21.70;3.92;;;15.90;99.90;;;;;;5036625;28;20037;-65
2022/08/01 05:47:23;;;;;;;20.83;4.28;;;15.80;99.90;;;;;;5033543;28;20481;-66
2022/08/01 05:49:50;;;;;;;11.70;3.67;;;15.80;99.90;;;;;;5049898;28;20047;-65
2022/08/01 05:52:15;;;;;;;17.17;4.03;;;15.80;99.90;;;;;;5049474;28;20083;-65
2022/08/01 05:54:41;;;;;;;18.65;3.60;;;15.80;99.90;;;;;;5049692;28;20427;-66
2022/08/01 05:57:07;;;;;;;17.88;3.70;;;15.80;99.90;;;;;;5032148;28;20045;-66
2022/08/01 05:59:32;;;;;;;14.23;4.10;;;15.80;99.90;;;;;;5048575;28;20041;-65
2022/08/01 06:01:58;;;;;;;15.63;3.47;;;15.90;99.90;;;;;;5049291;28;20106;-66
2022/08/01 06:04:24;;;;;;;24.08;3.47;;;15.90;99.90;;;;;;5044829;28;20659;-66
2022/08/01 06:06:50;;;;;;;15.88;3.63;;;15.90;99.90;;;;;;5014816;28;20985;-65
2022/08/01 06:09:15;;;;;;;15.25;3.65;;;15.90;99.90;;;;;;5048716;28;20057;-65
2022/08/01 06:11:41;;;;;;;17.27;4.15;;;15.90;99.90;;;;;;5046765;28;20068;-65
2022/08/01 06:14:07;;;;;;;15.85;3.67;;;15.90;99.90;;;;;;5028625;28;20152;-66
2022/08/01 06:16:32;;;;;;;19.10;3.72;;;16.00;99.90;;;;;;5024805;28;20562;-66
2022/08/01 06:18:58;;;;;;;18.65;3.45;;;16.00;99.90;;;;;;5037321;28;20041;-65
2022/08/01 06:21:24;;;;;;;21.95;4.00;;;16.00;99.90;;;;;;5052694;28;20367;-65
2022/08/01 06:23:49;;;;;;;16.10;3.30;;;16.00;99.90;;;;;;5042796;28;20136;-65
2022/08/01 06:26:19;;;;;;;15.27;3.15;;;16.00;99.90;;;;;;5033637;28;20049;-67
2022/08/01 06:28:44;;;;;;;15.15;3.33;;;16.00;99.90;;;;;;5046719;28;20207;-66
2022/08/01 06:31:12;;;;;;;15.60;3.40;;;16.00;99.90;;;;;;5053415;28;20196;-66
2022/08/01 06:33:38;;;;;;;14.63;3.08;;;16.10;99.90;;;;;;5052811;28;20431;-65
2022/08/01 06:36:04;;;;;;;19.65;3.50;;;16.10;99.90;;;;;;5051866;28;20053;-65
2022/08/01 06:38:29;;;;;;;13.25;3.10;;;16.10;99.90;;;;;;5037039;28;20045;-64
2022/08/01 06:40:55;;;;;;;12.68;2.63;;;16.20;99.90;;;;;;5052919;28;20092;-65
2022/08/01 06:43:23;;;;;;;16.70;3.40;;;16.20;99.90;;;;;;5041985;28;20076;-65
2022/08/01 06:45:49;;;;;;;12.55;2.45;;;16.30;99.90;;;;;;5043106;28;20110;-65
2022/08/01 06:48:15;;;;;;;15.73;2.88;;;16.20;99.90;;;;;;5029328;28;20045;-66
2022/08/01 06:50:41;;;;;;;14.30;2.30;;;16.30;99.90;;;;;;5030627;28;20049;-66
2022/08/01 06:53:06;;;;;;;18.15;3.13;;;16.40;99.90;;;;;;5037836;28;20172;-65
2022/08/01 06:55:32;;;;;;;14.27;2.70;;;16.40;99.90;;;;;;5039895;28;20088;-64
2022/08/01 06:57:58;;;;;;;11.68;2.50;;;16.50;99.90;;;;;;5035126;28;20044;-64
2022/08/01 07:00:25;;;;;;;14.13;3.00;;;16.60;99.90;;;;;;5052959;28;20045;-65
2022/08/01 07:02:56;;;;;;;13.63;2.88;;;16.60;99.90;;;;;;5045446;28;20051;-65
2022/08/01 07:05:22;;;;;;;17.27;2.90;;;16.70;99.90;;;;;;5037642;28;20553;-64
2022/08/01 07:07:48;;;;;;;14.70;2.70;;;16.80;99.90;;;;;;5023808;28;20476;-65
2022/08/01 07:10:14;;;;;;;12.27;2.67;;;16.80;99.90;;;;;;5039416;28;20096;-65
2022/08/01 07:12:40;;;;;;;14.18;3.03;;;16.80;99.90;;;;;;5033161;28;20477;-64
2022/08/01 07:15:08;;;;;;;11.90;2.50;;;16.90;99.90;;;;;;5049994;28;20045;-65
2022/08/01 07:17:42;;;;;;;13.98;2.78;;;17.00;99.90;;;;;;5025944;28;20067;-64
2022/08/01 07:20:09;;;;;;;11.98;2.33;;;17.00;99.90;;;;;;5052174;28;20041;-65
2022/08/01 07:22:35;;;;;;;16.02;2.83;;;17.10;99.90;;;;;;5048215;28;20551;-65
2022/08/01 07:25:02;;;;;;;13.05;2.95;;;17.10;99.90;;;;;;5034647;28;20087;-65
2022/08/01 07:27:28;;;;;;;14.90;2.50;;;17.10;99.90;;;;;;5025735;28;20049;-64
2022/08/01 07:29:53;;;;;;;10.18;2.22;;;17.10;99.90;;;;;;5033745;28;20041;-65
2022/08/01 07:32:19;;;;;;;10.93;2.63;;;17.20;99.90;;;;;;5032118;28;20605;-64
2022/08/01 07:34:44;;;;;;;14.80;2.38;;;17.10;99.90;;;;;;5050163;28;20080;-65
2022/08/01 07:37:10;;;;;;;9.13;2.33;;;17.10;99.90;;;;;;5035517;28;20183;-65
2022/08/01 07:39:36;;;;;;;12.73;2.17;;;17.10;99.90;;;;;;5051779;28;20080;-65
2022/08/01 07:42:02;;;;;;;11.38;2.13;;;17.10;99.90;;;;;;5050960;28;20124;-64
2022/08/01 07:44:27;;;;;;;12.30;2.25;;;17.20;99.90;;;;;;5035038;28;20504;-65
2022/08/01 07:46:53;;;;;;;14.25;2.60;;;17.20;99.90;;;;;;5035178;28;20080;-65
2022/08/01 07:49:19;;;;;;;13.05;2.20;;;17.40;99.90;;;;;;5050598;28;20045;-65
2022/08/01 07:51:44;;;;;;;13.25;2.50;;;17.30;99.90;;;;;;5051951;28;20547;-65
2022/08/01 07:54:10;;;;;;;10.55;2.10;;;17.30;99.90;;;;;;5051150;28;20524;-65
2022/08/01 07:56:36;;;;;;;10.05;2.03;;;17.40;99.90;;;;;;5036654;28;20053;-65
2022/08/01 07:59:02;;;;;;;11.70;2.25;;;17.40;99.90;;;;;;5047854;28;20045;-64
2022/08/01 08:01:27;;;;;;;10.07;2.40;;;17.50;99.90;;;;;;5051683;28;20439;-64
2022/08/01 08:03:53;;;;;;;11.93;2.35;;;17.30;99.90;;;;;;5035134;28;20068;-65
2022/08/01 08:06:19;;;;;;;8.07;2.05;;;17.40;99.90;;;;;;5020746;28;20049;-65
2022/08/01 08:08:45;;;;;;;6.85;1.58;;;17.40;99.90;;;;;;5026099;28;20133;-65
2022/08/01 08:11:10;;;;;;;9.85;2.10;;;17.60;99.90;;;;;;5033140;28;20040;-65
2022/08/01 08:13:36;;;;;;;8.82;1.52;;;17.50;99.90;;;;;;5034883;28;20047;-64
2022/08/01 08:16:02;;;;;;;9.93;1.65;;;17.60;99.90;;;;;;5041863;28;20045;-65
2022/08/01 08:18:27;;;;;;;15.88;2.28;;;17.60;99.90;;;;;;5014140;28;20076;-64
2022/08/01 08:20:53;;;;;;;9.35;2.40;;;17.40;99.90;;;;;;5039481;28;20496;-65
2022/08/01 08:26:02;;;;;;;10.68;1.70;;;17.40;99.90;;;;;;5031371;28;20153;-64
2022/08/01 08:28:28;;;;;;;12.20;1.90;;;17.50;99.90;;;;;;5033245;28;20075;-64
2022/08/01 08:30:54;;;;;;;8.45;1.83;;;17.60;99.90;;;;;;5050438;28;20052;-64
2022/08/01 08:33:20;;;;;;;11.80;2.08;;;17.60;99.90;;;;;;5048717;28;20041;-65
2022/08/01 08:35:46;;;;;;;10.15;2.20;;;17.70;99.90;;;;;;5051116;28;20052;-65
2022/08/01 08:38:12;;;;;;;13.70;2.03;;;17.60;99.90;;;;;;5033893;28;20115;-64
2022/08/01 08:40:38;;;;;;;10.68;1.95;;;17.80;99.90;;;;;;5043298;28;20056;-65
2022/08/01 08:43:07;;;;;;;11.30;2.00;;;17.70;99.90;;;;;;5034262;28;20134;-64
2022/08/01 08:45:39;;;;;;;12.23;1.80;;;17.80;99.90;;;;;;5050871;28;20041;-65
2022/08/01 08:48:06;;;;;;;6.88;1.63;;;17.80;99.90;;;;;;5033024;28;20045;-64
2022/08/01 08:50:32;;;;;;;10.85;1.52;;;17.90;99.90;;;;;;5050540;28;20052;-65
2022/08/01 08:53:00;;;;;;;10.63;1.67;;;17.80;99.90;;;;;;5048305;28;20049;-64
2022/08/01 08:55:27;;;;;;;11.40;1.77;;;17.90;99.90;;;;;;5050796;28;20060;-64
2022/08/01 08:57:54;;;;;;;7.40;1.35;;;17.80;99.90;;;;;;5033012;28;20045;-64
2022/08/01 09:00:19;;;;;;;7.47;1.60;;;17.80;99.90;;;;;;5037920;28;20041;-64
2022/08/01 09:02:48;;;;;;;9.95;2.13;;;18.00;99.90;;;;;;5033764;28;20400;-64
2022/08/01 09:05:14;;;;;;;7.57;1.40;;;18.00;99.90;;;;;;5035552;28;20049;-64
2022/08/01 09:07:40;;;;;;;9.23;1.55;;;18.00;99.90;;;;;;4996232;28;20041;-64
2022/08/01 09:10:07;;;;;;;8.65;1.25;;;18.10;99.90;;;;;;5044517;28;20049;-65
2022/08/01 09:12:33;;;;;;;10.82;1.75;;;17.90;99.90;;;;;;5039836;28;20152;-65
2022/08/01 09:14:58;;;;;;;8.48;1.70;;;17.90;99.90;;;;;;5039262;28;20056;-64
2022/08/01 09:17:24;;;;;;;10.38;1.70;;;18.00;99.90;;;;;;5024548;28;20053;-64
2022/08/01 09:19:55;;;;;;;7.30;1.50;;;18.10;99.90;;;;;;5049105;28;20120;-65
2022/08/01 09:22:22;;;;;;;;;;;18.20;99.90;;;;;;5032333;28;20064;-65
2022/08/01 09:25:08;;;;;;;9.57;1.58;;;18.20;99.90;;;;;;5029183;28;19927;-64
2022/08/01 09:27:35;;;;;;;10.80;1.70;;;18.10;99.90;;;;;;5024283;28;20048;-64
2022/08/01 09:30:12;;;;;;;7.57;1.38;;;17.90;99.90;;;;;;5013989;28;20053;-64
2022/08/01 09:33:02;;;;;;;9.68;1.52;;;17.90;99.90;;;;;;5039032;28;20038;-65
2022/08/01 09:35:34;;;;;;;10.20;1.88;;;17.90;99.90;;;;;;5050415;28;20041;-65
2022/08/01 09:38:22;;;;;;;8.73;1.52;;;17.90;99.90;;;;;;5028483;28;20053;-64
2022/08/01 09:40:55;;;;;;;8.93;1.88;;;18.00;99.90;;;;;;5042019;28;20082;-64
2022/08/01 09:43:23;;;;;;;7.78;1.88;;;18.00;99.90;;;;;;5037843;28;20144;-64
2022/08/01 09:45:50;;;;;;;8.13;1.95;;;18.10;99.90;;;;;;5048500;28;20048;-64
2022/08/01 09:48:16;;;;;;;9.68;1.42;;;18.10;99.90;;;;;;5015337;28;20095;-64
2022/08/01 09:50:44;;;;;;;9.02;2.08;;;18.00;99.90;;;;;;5042903;28;20055;-64
2022/08/01 09:53:10;;;;;;;9.43;1.52;;;18.00;99.90;;;;;;5030384;28;20048;-64
2022/08/01 09:55:37;;;;;;;10.70;1.70;;;18.20;99.90;;;;;;5036442;28;20049;-64
2022/08/01 09:58:04;;;;;;;8.25;1.83;;;18.20;99.90;;;;;;5026465;28;20076;-64
2022/08/01 10:00:31;;;;;;;10.13;1.50;;;18.20;99.90;;;;;;5054180;28;20065;-63
2022/08/01 10:02:57;;;;;;;12.82;1.90;;;18.10;99.90;;;;;;5041039;28;20103;-63
2022/08/01 10:05:31;;;;;;;8.30;1.20;;;18.10;99.90;;;;;;5040515;28;20041;-63
2022/08/01 10:08:01;;;;;;;8.13;1.60;;;18.20;99.90;;;;;;5028031;28;20137;-64
2022/08/01 10:10:27;;;;;;;9.23;1.80;;;18.30;99.90;;;;;;5056359;28;20123;-63
2022/08/01 10:12:56;;;;;;;7.03;1.25;;;18.30;99.90;;;;;;5041868;28;20113;-63
2022/08/01 10:15:23;;;;;;;9.10;1.38;;;18.30;99.90;;;;;;5045846;28;20060;-63
2022/08/01 10:18:04;;;;;;;8.15;1.60;;;18.40;99.90;;;;;;5023263;28;20404;-63
2022/08/01 10:20:31;;;;;;;8.73;1.38;;;18.20;99.90;;;;;;5042606;28;20227;-64
2022/08/01 10:23:03;;;;;;;7.88;1.63;;;18.30;99.90;;;;;;5052311;28;20559;-64
2022/08/01 10:25:35;;;;;;;8.90;1.40;;;18.30;99.90;;;;;;5054501;28;20123;-63
2022/08/01 10:28:10;;;;;;;5.60;1.23;;;18.30;99.90;;;;;;5039853;28;20041;-63
2022/08/01 10:30:37;;;;;;;8.25;1.50;;;18.40;99.90;;;;;;5055003;28;20049;-63
2022/08/01 10:33:03;;;;;;;7.78;1.60;;;18.40;99.90;;;;;;5054295;28;20530;-63
2022/08/01 10:35:31;;;;;;;7.53;1.20;;;18.20;99.90;;;;;;5027748;28;20052;-63
2022/08/01 10:37:57;;;;;;;6.05;1.48;;;18.20;99.90;;;;;;5036549;28;20045;-64
2022/08/01 10:40:23;;;;;;;8.18;1.52;;;18.40;99.90;;;;;;5054429;28;20087;-65
2022/08/01 10:42:51;;;;;;;6.85;1.45;;;18.40;99.90;;;;;;5049637;28;20042;-63
2022/08/01 10:45:17;;;;;;;8.75;1.27;;;18.40;99.90;;;;;;5044793;28;20048;-63
2022/08/01 10:48:17;;;;;;;5.50;1.30;;;18.30;99.90;;;;;;5038115;28;20091;-63
2022/08/01 10:50:49;;;;;;;6.18;1.33;;;18.40;99.90;;;;;;5056007;28;20092;-64
2022/08/01 10:53:23;;;;;;;6.90;1.10;;;18.50;99.90;;;;;;5053869;28;20045;-63
2022/08/01 10:55:56;;;;;;;8.57;1.30;;;18.40;99.90;;;;;;5054024;28;20369;-63
2022/08/01 10:58:32;;;;;;;6.13;1.20;;;18.40;99.90;;;;;;5019636;28;20042;-63
2022/08/01 11:01:19;;;;;;;7.32;1.38;;;18.50;99.90;;;;;;5041051;28;20515;-64
2022/08/01 11:04:00;;;;;;;7.65;1.60;;;18.40;99.90;;;;;;5041877;28;20088;-63
2022/08/01 11:06:34;;;;;;;5.93;1.50;;;18.50;99.90;;;;;;5039706;28;20940;-63
2022/08/01 11:09:03;;;;;;;5.05;1.25;;;18.40;99.90;;;;;;5048474;28;20045;-63
2022/08/01 11:11:29;;;;;;;5.60;1.20;;;18.30;99.90;;;;;;5050567;28;20076;-64
2022/08/01 11:13:58;;;;;;;10.02;1.58;;;18.20;99.90;;;;;;5033038;28;20079;-64
2022/08/01 11:16:31;;;;;;;8.77;1.40;;;18.20;99.90;;;;;;5030265;28;20049;-65
2022/08/01 11:18:57;;;;;;;5.68;1.10;;;18.30;99.90;;;;;;5030264;28;20119;-63
2022/08/01 11:21:52;;;;;;;8.25;1.50;;;18.40;99.90;;;;;;5032238;28;20049;-63
2022/08/01 11:24:45;;;;;;;7.63;1.48;;;18.30;99.90;;;;;;5039043;28;20056;-64
2022/08/01 11:27:29;;;;;;;6.97;1.08;;;18.20;99.90;;;;;;5024379;28;20053;-64
2022/08/01 11:30:10;;;;;;;5.63;1.13;;;18.20;99.90;;;;;;5033552;28;20103;-63
2022/08/01 11:32:50;;;;;;;3.92;0.98;;;18.20;99.90;;;;;;5030351;28;20132;-63
2022/08/01 11:35:19;;;;;;;7.85;1.40;;;18.40;99.90;;;;;;5032217;28;20497;-64
2022/08/01 11:37:45;;;;;;;6.32;1.17;;;18.40;99.90;;;;;;5019344;28;20120;-63
2022/08/01 11:40:25;;;;;;;6.03;1.15;;;18.40;99.90;;;;;;5067271;28;20143;-63
2022/08/01 11:43:13;;;;;;;11.20;1.30;;;18.40;99.90;;;;;;5045182;28;20128;-64
2022/08/01 11:45:55;;;;;;;6.82;1.23;;;18.50;99.90;;;;;;5044577;28;20512;-63
2022/08/01 11:48:26;;;;;;;5.90;1.00;;;18.40;99.90;;;;;;5019306;28;20037;-64
2022/08/01 11:50:54;;;;;;;6.03;1.10;;;18.40;99.90;;;;;;5042689;28;20103;-64
2022/08/01 11:53:20;;;;;;;6.25;1.23;;;18.40;99.90;;;;;;5040940;28;20048;-64
2022/08/01 11:55:48;;;;;;;6.32;1.20;;;18.40;99.90;;;;;;5039461;28;20038;-64
2022/08/01 11:58:14;;;;;;;4.85;0.88;;;18.40;99.90;;;;;;5023719;28;20041;-64
2022/08/01 12:00:40;;;;;;;5.32;0.93;;;18.40;99.90;;;;;;5055820;28;20492;-64
2022/08/01 12:03:08;;;;;;;6.65;1.30;;;18.40;99.90;;;;;;5040195;28;20129;-63
2022/08/01 12:05:36;;;;;;;3.58;1.08;;;18.60;99.90;;;;;;5049221;28;20048;-64
2022/08/01 12:08:04;;;;;;;7.55;1.23;;;18.60;99.90;;;;;;5024101;28;20129;-64
2022/08/01 12:10:36;;;;;;;6.47;1.20;;;18.50;99.90;;;;;;5038042;28;20184;-63
2022/08/01 12:13:04;;;;;;;9.45;1.23;;;18.50;99.90;;;;;;5047031;28;20487;-64
2022/08/01 12:15:33;;;;;;;4.40;1.27;;;18.50;99.90;;;;;;5043791;28;20049;-63
2022/08/01 12:18:01;;;;;;;6.30;1.23;;;18.70;99.90;;;;;;5023169;28;20040;-64
2022/08/01 12:20:32;;;;;;;10.10;1.20;;;18.60;99.90;;;;;;5040764;28;20045;-64
2022/08/01 12:23:01;;;;;;;9.43;1.42;;;18.60;99.90;;;;;;5041098;28;20043;-63
2022/08/01 12:25:27;;;;;;;9.20;1.40;;;18.60;99.90;;;;;;5031205;28;20392;-64
2022/08/01 12:27:53;;;;;;;10.95;1.38;;;18.60;99.90;;;;;;5026936;28;20123;-64
2022/08/01 12:30:24;;;;;;;6.70;1.30;;;18.50;99.90;;;;;;5031024;28;20052;-64
2022/08/01 12:32:51;;;;;;;6.22;1.13;;;18.50;99.90;;;;;;5042672;28;20102;-64
2022/08/01 12:35:26;;;;;;;9.35;1.58;;;18.40;99.90;;;;;;5040434;28;20044;-64
2022/08/01 12:37:56;;;;;;;4.53;0.85;;;18.60;99.90;;;;;;5034660;28;20763;-64
2022/08/01 12:40:27;;;;;;;5.32;0.80;;;18.60;99.90;;;;;;5039220;28;20050;-65
2022/08/01 12:43:04;;;;;;;7.68;1.05;;;18.70;99.90;;;;;;5043101;28;20053;-63
2022/08/01 12:45:37;;;;;;;8.27;1.10;;;18.70;99.90;;;;;;5040229;28;20049;-64
2022/08/01 12:48:08;;;;;;;6.18;1.23;;;18.80;99.90;;;;;;5014759;28;20072;-64
2022/08/01 12:50:36;;;;;;;9.15;1.33;;;18.80;99.90;;;;;;5025477;28;20068;-64